sensor_id;sensor_type;location;lat;lon;timestamp;P1;durP1;ratioP1;P2;durP2;ratioP2
51957;SDS011;41120;51.820;20.804;2023-12-22T00:00:52;10.15;;;3.70;;
51957;SDS011;41120;51.820;20.804;2023-12-22T00:06:27;6.38;;;3.00;;
51957;SDS011;41120;51.820;20.804;2023-12-22T00:08:59;14.02;;;4.28;;
51957;SDS011;41120;51.820;20.804;2023-12-22T00:14:06;12.90;;;4.63;;
51957;SDS011;41120;51.820;20.804;2023-12-22T00:19:06;14.55;;;3.95;;
51957;SDS011;41120;51.820;20.804;2023-12-22T00:24:41;10.63;;;3.60;;
51957;SDS011;41120;51.820;20.804;2023-12-22T00:27:14;9.65;;;3.20;;
51957;SDS011;41120;51.820;20.804;2023-12-22T00:29:41;6.85;;;2.90;;
51957;SDS011;41120;51.820;20.804;2023-12-22T00:40:26;9.57;;;3.30;;
51957;SDS011;41120;51.820;20.804;2023-12-22T00:57:14;11.27;;;3.40;;
51957;SDS011;41120;51.820;20.804;2023-12-22T00:59:42;7.97;;;2.88;;
51957;SDS011;41120;51.820;20.804;2023-12-22T01:02:14;10.82;;;3.08;;
51957;SDS011;41120;51.820;20.804;2023-12-22T01:04:40;11.63;;;3.05;;
51957;SDS011;41120;51.820;20.804;2023-12-22T01:07:10;9.80;;;2.90;;
51957;SDS011;41120;51.820;20.804;2023-12-22T01:09:37;5.05;;;2.38;;
51957;SDS011;41120;51.820;20.804;2023-12-22T01:12:11;8.60;;;2.88;;
51957;SDS011;41120;51.820;20.804;2023-12-22T01:17:52;11.30;;;3.75;;
51957;SDS011;41120;51.820;20.804;2023-12-22T01:20:19;14.85;;;3.25;;
51957;SDS011;41120;51.820;20.804;2023-12-22T01:25:59;15.48;;;3.70;;
51957;SDS011;41120;51.820;20.804;2023-12-22T01:28:43;12.00;;;2.92;;
51957;SDS011;41120;51.820;20.804;2023-12-22T01:34:19;10.10;;;2.15;;
51957;SDS011;41120;51.820;20.804;2023-12-22T01:42:10;12.70;;;3.05;;
51957;SDS011;41120;51.820;20.804;2023-12-22T01:44:36;9.73;;;2.50;;
51957;SDS011;41120;51.820;20.804;2023-12-22T01:47:02;14.32;;;2.60;;
51957;SDS011;41120;51.820;20.804;2023-12-22T01:49:28;11.70;;;2.77;;
51957;SDS011;41120;51.820;20.804;2023-12-22T01:51:55;7.35;;;2.35;;
51957;SDS011;41120;51.820;20.804;2023-12-22T01:54:21;15.37;;;2.90;;
51957;SDS011;41120;51.820;20.804;2023-12-22T01:56:58;11.75;;;3.10;;
51957;SDS011;41120;51.820;20.804;2023-12-22T01:59:24;10.02;;;2.55;;
51957;SDS011;41120;51.820;20.804;2023-12-22T02:04:32;16.38;;;2.70;;
51957;SDS011;41120;51.820;20.804;2023-12-22T02:07:01;12.88;;;3.20;;
51957;SDS011;41120;51.820;20.804;2023-12-22T02:09:29;9.05;;;2.55;;
51957;SDS011;41120;51.820;20.804;2023-12-22T02:12:04;10.68;;;2.08;;
51957;SDS011;41120;51.820;20.804;2023-12-22T02:17:51;9.70;;;2.65;;
51957;SDS011;41120;51.820;20.804;2023-12-22T02:26:46;13.50;;;2.97;;
51957;SDS011;41120;51.820;20.804;2023-12-22T02:29:21;6.32;;;2.33;;
51957;SDS011;41120;51.820;20.804;2023-12-22T02:34:41;8.93;;;2.60;;
51957;SDS011;41120;51.820;20.804;2023-12-22T02:37:19;11.20;;;2.10;;
51957;SDS011;41120;51.820;20.804;2023-12-22T02:42:31;5.82;;;1.92;;
51957;SDS011;41120;51.820;20.804;2023-12-22T02:44:58;10.65;;;2.08;;
51957;SDS011;41120;51.820;20.804;2023-12-22T02:47:25;7.28;;;2.55;;
51957;SDS011;41120;51.820;20.804;2023-12-22T02:49:53;11.57;;;2.17;;
51957;SDS011;41120;51.820;20.804;2023-12-22T02:52:19;7.25;;;2.25;;
51957;SDS011;41120;51.820;20.804;2023-12-22T02:54:45;9.43;;;2.50;;
51957;SDS011;41120;51.820;20.804;2023-12-22T02:57:30;11.32;;;2.30;;
51957;SDS011;41120;51.820;20.804;2023-12-22T03:02:54;4.38;;;2.08;;
51957;SDS011;41120;51.820;20.804;2023-12-22T03:05:24;5.47;;;1.90;;
51957;SDS011;41120;51.820;20.804;2023-12-22T03:07:50;8.57;;;2.38;;
51957;SDS011;41120;51.820;20.804;2023-12-22T03:10:16;8.27;;;2.70;;
51957;SDS011;41120;51.820;20.804;2023-12-22T03:12:42;10.88;;;2.67;;
51957;SDS011;41120;51.820;20.804;2023-12-22T03:15:08;7.97;;;2.07;;
51957;SDS011;41120;51.820;20.804;2023-12-22T03:17:34;7.15;;;1.95;;
51957;SDS011;41120;51.820;20.804;2023-12-22T03:20:01;8.98;;;2.30;;
51957;SDS011;41120;51.820;20.804;2023-12-22T03:22:27;6.40;;;2.10;;
51957;SDS011;41120;51.820;20.804;2023-12-22T03:24:53;15.87;;;3.00;;
51957;SDS011;41120;51.820;20.804;2023-12-22T03:27:19;7.90;;;2.20;;
51957;SDS011;41120;51.820;20.804;2023-12-22T03:29:45;14.00;;;3.25;;
51957;SDS011;41120;51.820;20.804;2023-12-22T03:32:12;13.10;;;2.10;;
51957;SDS011;41120;51.820;20.804;2023-12-22T03:34:37;14.43;;;3.17;;
51957;SDS011;41120;51.820;20.804;2023-12-22T03:37:03;15.80;;;2.43;;
51957;SDS011;41120;51.820;20.804;2023-12-22T03:39:29;7.23;;;1.97;;
51957;SDS011;41120;51.820;20.804;2023-12-22T03:41:56;9.27;;;1.98;;
51957;SDS011;41120;51.820;20.804;2023-12-22T03:44:21;7.72;;;2.10;;
51957;SDS011;41120;51.820;20.804;2023-12-22T03:46:48;11.30;;;2.70;;
51957;SDS011;41120;51.820;20.804;2023-12-22T03:49:14;7.13;;;3.37;;
51957;SDS011;41120;51.820;20.804;2023-12-22T03:51:40;11.27;;;2.10;;
51957;SDS011;41120;51.820;20.804;2023-12-22T03:54:07;8.27;;;2.60;;
51957;SDS011;41120;51.820;20.804;2023-12-22T03:56:33;9.73;;;1.73;;
51957;SDS011;41120;51.820;20.804;2023-12-22T03:58:59;11.93;;;2.47;;
51957;SDS011;41120;51.820;20.804;2023-12-22T04:01:25;9.00;;;1.80;;
51957;SDS011;41120;51.820;20.804;2023-12-22T04:03:50;9.97;;;1.93;;
51957;SDS011;41120;51.820;20.804;2023-12-22T04:06:17;9.35;;;2.10;;
51957;SDS011;41120;51.820;20.804;2023-12-22T04:08:43;7.77;;;1.63;;
51957;SDS011;41120;51.820;20.804;2023-12-22T04:11:10;9.65;;;2.60;;
51957;SDS011;41120;51.820;20.804;2023-12-22T04:13:35;10.87;;;2.10;;
51957;SDS011;41120;51.820;20.804;2023-12-22T04:16:01;8.40;;;2.38;;
51957;SDS011;41120;51.820;20.804;2023-12-22T04:18:30;9.60;;;1.95;;
51957;SDS011;41120;51.820;20.804;2023-12-22T04:20:57;8.23;;;2.33;;
51957;SDS011;41120;51.820;20.804;2023-12-22T04:23:22;5.77;;;1.97;;
51957;SDS011;41120;51.820;20.804;2023-12-22T04:25:48;12.03;;;2.60;;
51957;SDS011;41120;51.820;20.804;2023-12-22T04:28:14;10.40;;;2.60;;
51957;SDS011;41120;51.820;20.804;2023-12-22T04:30:41;9.35;;;2.00;;
51957;SDS011;41120;51.820;20.804;2023-12-22T04:33:07;8.90;;;2.20;;
51957;SDS011;41120;51.820;20.804;2023-12-22T04:35:33;13.60;;;3.73;;
51957;SDS011;41120;51.820;20.804;2023-12-22T04:37:59;7.93;;;2.83;;
51957;SDS011;41120;51.820;20.804;2023-12-22T04:40:25;11.52;;;2.45;;
51957;SDS011;41120;51.820;20.804;2023-12-22T04:42:53;7.68;;;2.35;;
51957;SDS011;41120;51.820;20.804;2023-12-22T04:45:19;10.45;;;2.40;;
51957;SDS011;41120;51.820;20.804;2023-12-22T04:47:45;12.10;;;2.97;;
51957;SDS011;41120;51.820;20.804;2023-12-22T04:50:11;13.70;;;3.03;;
51957;SDS011;41120;51.820;20.804;2023-12-22T04:52:37;11.20;;;2.63;;
51957;SDS011;41120;51.820;20.804;2023-12-22T04:55:03;11.75;;;2.83;;
51957;SDS011;41120;51.820;20.804;2023-12-22T04:57:29;13.18;;;2.55;;
51957;SDS011;41120;51.820;20.804;2023-12-22T04:59:55;13.25;;;2.97;;
51957;SDS011;41120;51.820;20.804;2023-12-22T05:02:23;14.40;;;3.72;;
51957;SDS011;41120;51.820;20.804;2023-12-22T05:04:49;8.82;;;2.42;;
51957;SDS011;41120;51.820;20.804;2023-12-22T05:07:15;10.40;;;2.80;;
51957;SDS011;41120;51.820;20.804;2023-12-22T05:09:44;9.98;;;2.75;;
51957;SDS011;41120;51.820;20.804;2023-12-22T05:12:11;7.95;;;2.40;;
51957;SDS011;41120;51.820;20.804;2023-12-22T05:14:37;16.98;;;3.05;;
51957;SDS011;41120;51.820;20.804;2023-12-22T05:17:03;14.07;;;2.80;;
51957;SDS011;41120;51.820;20.804;2023-12-22T05:19:29;14.80;;;2.78;;
51957;SDS011;41120;51.820;20.804;2023-12-22T05:21:55;12.20;;;3.10;;
51957;SDS011;41120;51.820;20.804;2023-12-22T05:24:22;17.20;;;3.80;;
51957;SDS011;41120;51.820;20.804;2023-12-22T05:26:48;18.97;;;3.50;;
51957;SDS011;41120;51.820;20.804;2023-12-22T05:29:19;10.80;;;3.03;;
51957;SDS011;41120;51.820;20.804;2023-12-22T05:37:46;13.38;;;2.92;;
51957;SDS011;41120;51.820;20.804;2023-12-22T05:43:17;16.92;;;3.55;;
51957;SDS011;41120;51.820;20.804;2023-12-22T05:51:48;7.93;;;2.78;;
51957;SDS011;41120;51.820;20.804;2023-12-22T05:54:32;14.02;;;2.97;;
51957;SDS011;41120;51.820;20.804;2023-12-22T05:56:59;11.25;;;3.33;;
51957;SDS011;41120;51.820;20.804;2023-12-22T06:02:20;12.43;;;2.13;;
51957;SDS011;41120;51.820;20.804;2023-12-22T06:04:46;13.07;;;2.85;;
51957;SDS011;41120;51.820;20.804;2023-12-22T06:07:12;18.00;;;3.87;;
51957;SDS011;41120;51.820;20.804;2023-12-22T06:27:16;16.45;;;2.75;;
51957;SDS011;41120;51.820;20.804;2023-12-22T06:41:26;10.30;;;2.13;;
51957;SDS011;41120;51.820;20.804;2023-12-22T06:43:53;9.55;;;2.55;;
51957;SDS011;41120;51.820;20.804;2023-12-22T06:46:21;11.30;;;2.20;;
51957;SDS011;41120;51.820;20.804;2023-12-22T06:49:09;12.95;;;2.88;;
51957;SDS011;41120;51.820;20.804;2023-12-22T06:57:51;13.65;;;2.20;;
51957;SDS011;41120;51.820;20.804;2023-12-22T07:00:20;8.80;;;2.35;;
51957;SDS011;41120;51.820;20.804;2023-12-22T07:11:56;7.78;;;2.15;;
51957;SDS011;41120;51.820;20.804;2023-12-22T07:14:22;11.88;;;2.88;;
51957;SDS011;41120;51.820;20.804;2023-12-22T07:19:44;13.27;;;2.80;;
51957;SDS011;41120;51.820;20.804;2023-12-22T07:22:18;7.47;;;1.58;;
51957;SDS011;41120;51.820;20.804;2023-12-22T07:24:44;9.35;;;2.25;;
51957;SDS011;41120;51.820;20.804;2023-12-22T07:32:48;10.80;;;1.58;;
51957;SDS011;41120;51.820;20.804;2023-12-22T07:35:17;3.13;;;1.20;;
51957;SDS011;41120;51.820;20.804;2023-12-22T07:43:04;8.52;;;1.38;;
51957;SDS011;41120;51.820;20.804;2023-12-22T07:45:32;10.75;;;1.80;;
51957;SDS011;41120;51.820;20.804;2023-12-22T07:48:13;9.23;;;1.95;;
51957;SDS011;41120;51.820;20.804;2023-12-22T07:50:41;6.82;;;2.33;;
51957;SDS011;41120;51.820;20.804;2023-12-22T07:53:09;11.75;;;2.05;;
51957;SDS011;41120;51.820;20.804;2023-12-22T07:55:36;6.38;;;2.15;;
51957;SDS011;41120;51.820;20.804;2023-12-22T07:58:07;12.15;;;2.50;;
51957;SDS011;41120;51.820;20.804;2023-12-22T08:00:33;11.05;;;2.55;;
51957;SDS011;41120;51.820;20.804;2023-12-22T08:05:29;11.20;;;2.60;;
51957;SDS011;41120;51.820;20.804;2023-12-22T08:07:57;8.27;;;2.15;;
51957;SDS011;41120;51.820;20.804;2023-12-22T08:10:23;9.65;;;3.60;;
51957;SDS011;41120;51.820;20.804;2023-12-22T08:12:51;9.52;;;3.30;;
51957;SDS011;41120;51.820;20.804;2023-12-22T08:15:18;21.98;;;8.57;;
51957;SDS011;41120;51.820;20.804;2023-12-22T08:17:51;23.58;;;10.63;;
51957;SDS011;41120;51.820;20.804;2023-12-22T08:22:50;29.30;;;10.13;;
51957;SDS011;41120;51.820;20.804;2023-12-22T08:25:21;23.88;;;8.93;;
51957;SDS011;41120;51.820;20.804;2023-12-22T08:27:49;23.48;;;7.78;;
51957;SDS011;41120;51.820;20.804;2023-12-22T08:30:15;19.58;;;7.05;;
51957;SDS011;41120;51.820;20.804;2023-12-22T08:32:48;19.13;;;3.97;;
51957;SDS011;41120;51.820;20.804;2023-12-22T08:35:23;26.38;;;5.40;;
51957;SDS011;41120;51.820;20.804;2023-12-22T08:40:49;12.88;;;4.38;;
51957;SDS011;41120;51.820;20.804;2023-12-22T08:43:18;18.42;;;7.95;;
51957;SDS011;41120;51.820;20.804;2023-12-22T08:45:44;18.75;;;7.53;;
51957;SDS011;41120;51.820;20.804;2023-12-22T08:48:14;12.20;;;3.85;;
51957;SDS011;41120;51.820;20.804;2023-12-22T08:50:52;9.07;;;2.90;;
51957;SDS011;41120;51.820;20.804;2023-12-22T08:53:24;17.23;;;6.78;;
51957;SDS011;41120;51.820;20.804;2023-12-22T08:58:44;9.45;;;2.22;;
51957;SDS011;41120;51.820;20.804;2023-12-22T09:01:16;14.93;;;6.28;;
51957;SDS011;41120;51.820;20.804;2023-12-22T09:06:24;25.52;;;10.48;;
51957;SDS011;41120;51.820;20.804;2023-12-22T09:09:00;9.05;;;3.75;;
51957;SDS011;41120;51.820;20.804;2023-12-22T09:13:59;18.42;;;7.55;;
51957;SDS011;41120;51.820;20.804;2023-12-22T09:16:32;25.55;;;8.98;;
51957;SDS011;41120;51.820;20.804;2023-12-22T09:19:00;11.65;;;3.95;;
51957;SDS011;41120;51.820;20.804;2023-12-22T09:23:55;9.95;;;3.65;;
51957;SDS011;41120;51.820;20.804;2023-12-22T09:32:00;5.53;;;1.77;;
51957;SDS011;41120;51.820;20.804;2023-12-22T09:34:45;10.07;;;3.33;;
51957;SDS011;41120;51.820;20.804;2023-12-22T09:37:25;11.30;;;2.53;;
51957;SDS011;41120;51.820;20.804;2023-12-22T09:49:25;8.40;;;2.30;;
51957;SDS011;41120;51.820;20.804;2023-12-22T10:03:30;9.52;;;4.50;;
51957;SDS011;41120;51.820;20.804;2023-12-22T10:12:24;10.45;;;2.83;;
51957;SDS011;41120;51.820;20.804;2023-12-22T10:15:00;14.73;;;4.38;;
51957;SDS011;41120;51.820;20.804;2023-12-22T10:17:36;7.55;;;3.00;;
51957;SDS011;41120;51.820;20.804;2023-12-22T10:22:59;6.70;;;2.22;;
51957;SDS011;41120;51.820;20.804;2023-12-22T10:41:14;12.32;;;3.90;;
51957;SDS011;41120;51.820;20.804;2023-12-22T10:43:41;7.57;;;2.35;;
51957;SDS011;41120;51.820;20.804;2023-12-22T10:46:21;7.00;;;1.80;;
51957;SDS011;41120;51.820;20.804;2023-12-22T10:48:48;3.70;;;1.45;;
51957;SDS011;41120;51.820;20.804;2023-12-22T10:51:25;4.72;;;2.05;;
51957;SDS011;41120;51.820;20.804;2023-12-22T10:53:53;4.25;;;1.05;;
51957;SDS011;41120;51.820;20.804;2023-12-22T10:56:20;5.05;;;0.90;;
51957;SDS011;41120;51.820;20.804;2023-12-22T10:58:46;4.07;;;1.80;;
51957;SDS011;41120;51.820;20.804;2023-12-22T11:01:14;10.23;;;3.42;;
51957;SDS011;41120;51.820;20.804;2023-12-22T11:03:39;2.58;;;1.77;;
51957;SDS011;41120;51.820;20.804;2023-12-22T11:06:07;4.65;;;1.90;;
51957;SDS011;41120;51.820;20.804;2023-12-22T11:08:36;3.38;;;1.35;;
51957;SDS011;41120;51.820;20.804;2023-12-22T11:11:05;3.47;;;2.10;;
51957;SDS011;41120;51.820;20.804;2023-12-22T11:13:35;3.38;;;1.60;;
51957;SDS011;41120;51.820;20.804;2023-12-22T11:16:02;5.05;;;1.50;;
51957;SDS011;41120;51.820;20.804;2023-12-22T11:18:30;24.02;;;11.75;;
51957;SDS011;41120;51.820;20.804;2023-12-22T11:20:56;4.88;;;2.30;;
51957;SDS011;41120;51.820;20.804;2023-12-22T11:23:22;4.07;;;1.97;;
51957;SDS011;41120;51.820;20.804;2023-12-22T11:25:49;6.78;;;3.60;;
51957;SDS011;41120;51.820;20.804;2023-12-22T11:28:16;9.30;;;4.20;;
51957;SDS011;41120;51.820;20.804;2023-12-22T11:30:44;23.70;;;13.20;;
51957;SDS011;41120;51.820;20.804;2023-12-22T11:33:10;5.90;;;3.15;;
51957;SDS011;41120;51.820;20.804;2023-12-22T11:35:36;8.35;;;5.88;;
51957;SDS011;41120;51.820;20.804;2023-12-22T11:38:03;9.33;;;4.73;;
51957;SDS011;41120;51.820;20.804;2023-12-22T11:40:30;8.98;;;5.25;;
51957;SDS011;41120;51.820;20.804;2023-12-22T11:42:56;15.48;;;6.78;;
51957;SDS011;41120;51.820;20.804;2023-12-22T11:45:24;10.52;;;6.07;;
51957;SDS011;41120;51.820;20.804;2023-12-22T11:47:50;9.85;;;6.15;;
51957;SDS011;41120;51.820;20.804;2023-12-22T11:50:29;7.47;;;4.03;;
51957;SDS011;41120;51.820;20.804;2023-12-22T11:52:55;6.80;;;3.92;;
51957;SDS011;41120;51.820;20.804;2023-12-22T11:58:44;9.73;;;5.25;;
51957;SDS011;41120;51.820;20.804;2023-12-22T12:01:05;8.63;;;5.10;;
51957;SDS011;41120;51.820;20.804;2023-12-22T12:03:31;5.80;;;5.13;;
51957;SDS011;41120;51.820;20.804;2023-12-22T12:08:59;8.15;;;5.07;;
51957;SDS011;41120;51.820;20.804;2023-12-22T12:14:33;11.68;;;5.65;;
51957;SDS011;41120;51.820;20.804;2023-12-22T12:17:05;7.32;;;3.25;;
51957;SDS011;41120;51.820;20.804;2023-12-22T12:19:37;8.88;;;4.40;;
51957;SDS011;41120;51.820;20.804;2023-12-22T12:22:03;7.57;;;3.78;;
51957;SDS011;41120;51.820;20.804;2023-12-22T12:24:29;7.17;;;2.87;;
51957;SDS011;41120;51.820;20.804;2023-12-22T12:26:56;6.97;;;2.92;;
51957;SDS011;41120;51.820;20.804;2023-12-22T12:29:22;7.17;;;3.60;;
51957;SDS011;41120;51.820;20.804;2023-12-22T12:32:10;5.55;;;2.35;;
51957;SDS011;41120;51.820;20.804;2023-12-22T12:34:46;6.00;;;3.85;;
51957;SDS011;41120;51.820;20.804;2023-12-22T12:37:15;7.00;;;4.60;;
51957;SDS011;41120;51.820;20.804;2023-12-22T12:39:49;7.38;;;3.85;;
51957;SDS011;41120;51.820;20.804;2023-12-22T12:42:28;7.32;;;4.47;;
51957;SDS011;41120;51.820;20.804;2023-12-22T12:44:57;5.85;;;3.17;;
51957;SDS011;41120;51.820;20.804;2023-12-22T12:50:28;10.73;;;6.10;;
51957;SDS011;41120;51.820;20.804;2023-12-22T12:56:05;7.30;;;3.10;;
51957;SDS011;41120;51.820;20.804;2023-12-22T12:58:33;8.02;;;4.68;;
51957;SDS011;41120;51.820;20.804;2023-12-22T13:01:08;10.43;;;4.72;;
51957;SDS011;41120;51.820;20.804;2023-12-22T13:06:28;10.70;;;5.10;;
51957;SDS011;41120;51.820;20.804;2023-12-22T13:11:28;4.80;;;2.92;;
51957;SDS011;41120;51.820;20.804;2023-12-22T13:13:55;9.73;;;4.53;;
51957;SDS011;41120;51.820;20.804;2023-12-22T13:16:23;5.18;;;3.15;;
51957;SDS011;41120;51.820;20.804;2023-12-22T13:18:51;10.27;;;3.28;;
51957;SDS011;41120;51.820;20.804;2023-12-22T13:21:18;9.60;;;3.78;;
51957;SDS011;41120;51.820;20.804;2023-12-22T13:23:44;9.13;;;4.17;;
51957;SDS011;41120;51.820;20.804;2023-12-22T13:26:23;9.07;;;4.60;;
51957;SDS011;41120;51.820;20.804;2023-12-22T13:28:56;11.40;;;4.65;;
51957;SDS011;41120;51.820;20.804;2023-12-22T13:31:22;10.73;;;5.80;;
51957;SDS011;41120;51.820;20.804;2023-12-22T13:33:48;6.10;;;4.30;;
51957;SDS011;41120;51.820;20.804;2023-12-22T13:36:15;7.88;;;3.80;;
51957;SDS011;41120;51.820;20.804;2023-12-22T13:38:45;7.60;;;4.40;;
51957;SDS011;41120;51.820;20.804;2023-12-22T13:41:13;6.78;;;4.05;;
51957;SDS011;41120;51.820;20.804;2023-12-22T13:43:40;9.38;;;4.35;;
51957;SDS011;41120;51.820;20.804;2023-12-22T13:46:08;13.38;;;4.63;;
51957;SDS011;41120;51.820;20.804;2023-12-22T13:48:34;9.05;;;4.70;;
51957;SDS011;41120;51.820;20.804;2023-12-22T13:51:01;10.13;;;5.40;;
51957;SDS011;41120;51.820;20.804;2023-12-22T13:53:27;9.10;;;3.97;;
51957;SDS011;41120;51.820;20.804;2023-12-22T13:55:55;9.32;;;4.32;;
51957;SDS011;41120;51.820;20.804;2023-12-22T13:58:21;11.07;;;4.65;;
51957;SDS011;41120;51.820;20.804;2023-12-22T14:00:51;14.73;;;7.15;;
51957;SDS011;41120;51.820;20.804;2023-12-22T14:03:17;8.07;;;4.00;;
51957;SDS011;41120;51.820;20.804;2023-12-22T14:05:47;6.65;;;3.75;;
51957;SDS011;41120;51.820;20.804;2023-12-22T14:08:14;6.45;;;3.75;;
51957;SDS011;41120;51.820;20.804;2023-12-22T14:10:56;9.15;;;3.90;;
51957;SDS011;41120;51.820;20.804;2023-12-22T14:13:23;11.95;;;4.85;;
51957;SDS011;41120;51.820;20.804;2023-12-22T14:15:49;9.93;;;4.20;;
51957;SDS011;41120;51.820;20.804;2023-12-22T14:18:15;10.53;;;5.03;;
51957;SDS011;41120;51.820;20.804;2023-12-22T14:20:45;11.10;;;5.25;;
51957;SDS011;41120;51.820;20.804;2023-12-22T14:23:11;12.13;;;5.90;;
51957;SDS011;41120;51.820;20.804;2023-12-22T14:25:42;11.98;;;5.10;;
51957;SDS011;41120;51.820;20.804;2023-12-22T14:28:08;17.50;;;7.60;;
51957;SDS011;41120;51.820;20.804;2023-12-22T14:30:35;16.67;;;7.10;;
51957;SDS011;41120;51.820;20.804;2023-12-22T14:33:03;14.52;;;9.40;;
51957;SDS011;41120;51.820;20.804;2023-12-22T14:35:29;15.07;;;8.80;;
51957;SDS011;41120;51.820;20.804;2023-12-22T14:37:55;16.60;;;5.50;;
51957;SDS011;41120;51.820;20.804;2023-12-22T14:40:22;9.40;;;4.95;;
51957;SDS011;41120;51.820;20.804;2023-12-22T14:42:49;12.55;;;7.35;;
51957;SDS011;41120;51.820;20.804;2023-12-22T14:45:18;14.77;;;6.90;;
51957;SDS011;41120;51.820;20.804;2023-12-22T14:47:48;17.98;;;6.88;;
51957;SDS011;41120;51.820;20.804;2023-12-22T14:50:15;13.57;;;6.50;;
51957;SDS011;41120;51.820;20.804;2023-12-22T14:52:41;12.60;;;6.82;;
51957;SDS011;41120;51.820;20.804;2023-12-22T14:55:08;13.45;;;6.35;;
51957;SDS011;41120;51.820;20.804;2023-12-22T14:57:35;9.23;;;5.20;;
51957;SDS011;41120;51.820;20.804;2023-12-22T15:00:01;14.70;;;6.63;;
51957;SDS011;41120;51.820;20.804;2023-12-22T15:02:28;10.23;;;4.55;;
51957;SDS011;41120;51.820;20.804;2023-12-22T15:04:54;20.27;;;6.93;;
51957;SDS011;41120;51.820;20.804;2023-12-22T15:07:21;14.27;;;6.80;;
51957;SDS011;41120;51.820;20.804;2023-12-22T15:09:47;15.40;;;5.20;;
51957;SDS011;41120;51.820;20.804;2023-12-22T15:12:16;13.02;;;4.60;;
51957;SDS011;41120;51.820;20.804;2023-12-22T15:14:45;14.10;;;6.18;;
51957;SDS011;41120;51.820;20.804;2023-12-22T15:17:11;15.02;;;6.00;;
51957;SDS011;41120;51.820;20.804;2023-12-22T15:19:42;11.45;;;5.10;;
51957;SDS011;41120;51.820;20.804;2023-12-22T15:22:11;13.48;;;4.90;;
51957;SDS011;41120;51.820;20.804;2023-12-22T15:24:41;16.48;;;5.47;;
51957;SDS011;41120;51.820;20.804;2023-12-22T15:27:11;10.57;;;5.63;;
51957;SDS011;41120;51.820;20.804;2023-12-22T15:29:40;12.90;;;4.25;;
51957;SDS011;41120;51.820;20.804;2023-12-22T15:32:07;9.80;;;5.32;;
51957;SDS011;41120;51.820;20.804;2023-12-22T15:34:33;10.10;;;5.32;;
51957;SDS011;41120;51.820;20.804;2023-12-22T15:36:59;18.10;;;6.97;;
51957;SDS011;41120;51.820;20.804;2023-12-22T15:39:26;19.88;;;7.20;;
51957;SDS011;41120;51.820;20.804;2023-12-22T15:41:57;19.40;;;6.82;;
51957;SDS011;41120;51.820;20.804;2023-12-22T15:44:23;14.38;;;6.35;;
51957;SDS011;41120;51.820;20.804;2023-12-22T15:46:49;22.27;;;7.43;;
51957;SDS011;41120;51.820;20.804;2023-12-22T15:49:15;19.42;;;8.43;;
51957;SDS011;41120;51.820;20.804;2023-12-22T15:51:41;11.20;;;6.37;;
51957;SDS011;41120;51.820;20.804;2023-12-22T15:54:07;11.55;;;5.20;;
51957;SDS011;41120;51.820;20.804;2023-12-22T15:56:34;12.83;;;5.03;;
51957;SDS011;41120;51.820;20.804;2023-12-22T15:59:00;16.92;;;5.20;;
51957;SDS011;41120;51.820;20.804;2023-12-22T16:01:26;13.67;;;5.10;;
51957;SDS011;41120;51.820;20.804;2023-12-22T16:03:52;17.55;;;5.25;;
51957;SDS011;41120;51.820;20.804;2023-12-22T16:06:18;14.30;;;5.03;;
51957;SDS011;41120;51.820;20.804;2023-12-22T16:08:45;15.32;;;6.53;;
51957;SDS011;41120;51.820;20.804;2023-12-22T16:11:11;14.50;;;5.18;;
51957;SDS011;41120;51.820;20.804;2023-12-22T16:13:37;22.88;;;7.18;;
51957;SDS011;41120;51.820;20.804;2023-12-22T16:16:03;13.20;;;5.43;;
51957;SDS011;41120;51.820;20.804;2023-12-22T16:18:30;15.27;;;5.03;;
51957;SDS011;41120;51.820;20.804;2023-12-22T16:20:56;9.90;;;4.13;;
51957;SDS011;41120;51.820;20.804;2023-12-22T16:23:22;24.58;;;5.20;;
51957;SDS011;41120;51.820;20.804;2023-12-22T16:25:48;10.23;;;4.50;;
51957;SDS011;41120;51.820;20.804;2023-12-22T16:28:19;10.75;;;3.67;;
51957;SDS011;41120;51.820;20.804;2023-12-22T16:30:47;9.02;;;4.03;;
51957;SDS011;41120;51.820;20.804;2023-12-22T16:33:13;12.25;;;4.85;;
51957;SDS011;41120;51.820;20.804;2023-12-22T16:35:40;22.23;;;7.80;;
51957;SDS011;41120;51.820;20.804;2023-12-22T16:38:06;16.40;;;6.05;;
51957;SDS011;41120;51.820;20.804;2023-12-22T16:40:32;18.40;;;7.30;;
51957;SDS011;41120;51.820;20.804;2023-12-22T16:42:58;16.55;;;7.90;;
51957;SDS011;41120;51.820;20.804;2023-12-22T16:45:24;21.57;;;7.53;;
51957;SDS011;41120;51.820;20.804;2023-12-22T16:48:00;17.40;;;7.60;;
51957;SDS011;41120;51.820;20.804;2023-12-22T16:50:26;14.00;;;6.20;;
51957;SDS011;41120;51.820;20.804;2023-12-22T16:52:52;13.10;;;6.25;;
51957;SDS011;41120;51.820;20.804;2023-12-22T16:55:21;19.10;;;6.10;;
51957;SDS011;41120;51.820;20.804;2023-12-22T16:57:49;15.07;;;6.00;;
51957;SDS011;41120;51.820;20.804;2023-12-22T17:00:21;17.73;;;7.22;;
51957;SDS011;41120;51.820;20.804;2023-12-22T17:02:50;15.88;;;5.88;;
51957;SDS011;41120;51.820;20.804;2023-12-22T17:05:16;16.23;;;7.07;;
51957;SDS011;41120;51.820;20.804;2023-12-22T17:10:14;12.75;;;4.85;;
51957;SDS011;41120;51.820;20.804;2023-12-22T17:12:40;19.23;;;5.55;;
51957;SDS011;41120;51.820;20.804;2023-12-22T17:15:15;12.57;;;4.15;;
51957;SDS011;41120;51.820;20.804;2023-12-22T17:17:48;24.15;;;6.28;;
51957;SDS011;41120;51.820;20.804;2023-12-22T17:20:18;19.33;;;5.85;;
51957;SDS011;41120;51.820;20.804;2023-12-22T17:22:44;23.20;;;7.00;;
51957;SDS011;41120;51.820;20.804;2023-12-22T17:25:13;20.27;;;7.87;;
51957;SDS011;41120;51.820;20.804;2023-12-22T17:27:40;11.95;;;5.60;;
51957;SDS011;41120;51.820;20.804;2023-12-22T17:30:09;14.25;;;6.13;;
51957;SDS011;41120;51.820;20.804;2023-12-22T17:32:42;18.88;;;5.82;;
51957;SDS011;41120;51.820;20.804;2023-12-22T17:35:20;19.70;;;6.07;;
51957;SDS011;41120;51.820;20.804;2023-12-22T17:37:46;17.90;;;4.80;;
51957;SDS011;41120;51.820;20.804;2023-12-22T17:40:15;16.88;;;5.28;;
51957;SDS011;41120;51.820;20.804;2023-12-22T17:42:44;11.48;;;5.00;;
51957;SDS011;41120;51.820;20.804;2023-12-22T17:45:12;13.07;;;4.63;;
51957;SDS011;41120;51.820;20.804;2023-12-22T17:47:39;18.02;;;5.60;;
51957;SDS011;41120;51.820;20.804;2023-12-22T17:50:05;19.77;;;5.37;;
51957;SDS011;41120;51.820;20.804;2023-12-22T17:52:31;16.33;;;4.47;;
51957;SDS011;41120;51.820;20.804;2023-12-22T17:54:57;16.60;;;3.90;;
51957;SDS011;41120;51.820;20.804;2023-12-22T17:57:24;17.98;;;4.45;;
51957;SDS011;41120;51.820;20.804;2023-12-22T17:59:50;15.93;;;3.73;;
51957;SDS011;41120;51.820;20.804;2023-12-22T18:02:17;14.48;;;3.60;;
51957;SDS011;41120;51.820;20.804;2023-12-22T18:04:44;18.27;;;4.22;;
51957;SDS011;41120;51.820;20.804;2023-12-22T18:07:11;15.68;;;3.70;;
51957;SDS011;41120;51.820;20.804;2023-12-22T18:09:40;13.70;;;3.60;;
51957;SDS011;41120;51.820;20.804;2023-12-22T18:14:36;12.15;;;3.05;;
51957;SDS011;41120;51.820;20.804;2023-12-22T18:17:02;14.75;;;3.40;;
51957;SDS011;41120;51.820;20.804;2023-12-22T18:19:28;9.90;;;2.43;;
51957;SDS011;41120;51.820;20.804;2023-12-22T18:21:55;10.27;;;2.70;;
51957;SDS011;41120;51.820;20.804;2023-12-22T18:24:20;15.60;;;3.20;;
51957;SDS011;41120;51.820;20.804;2023-12-22T18:26:46;14.30;;;3.80;;
51957;SDS011;41120;51.820;20.804;2023-12-22T18:29:12;13.00;;;3.07;;
51957;SDS011;41120;51.820;20.804;2023-12-22T18:31:38;6.85;;;2.45;;
51957;SDS011;41120;51.820;20.804;2023-12-22T18:34:04;10.50;;;2.85;;